createdAt,value
2023-01-21T00:01:19.724Z,20.10
2023-01-21T00:03:46.632Z,18.02
2023-01-21T00:06:15.118Z,18.08
2023-01-21T00:08:41.963Z,15.65
2023-01-21T00:11:11.267Z,18.48
2023-01-21T00:13:38.245Z,17.20
2023-01-21T00:16:05.957Z,17.00
2023-01-21T00:18:33.849Z,14.88
2023-01-21T00:21:01.130Z,17.70
2023-01-21T00:23:28.158Z,15.02
2023-01-21T00:26:02.552Z,16.98
2023-01-21T00:28:30.405Z,14.88
2023-01-21T00:30:59.325Z,15.88
2023-01-21T00:33:26.785Z,16.02
2023-01-21T00:36:06.685Z,16.08
2023-01-21T00:38:34.128Z,15.15
2023-01-21T00:41:06.774Z,16.05
2023-01-21T00:43:34.111Z,14.00
2023-01-21T00:46:01.173Z,16.98
2023-01-21T00:48:31.020Z,14.30
2023-01-21T00:51:00.780Z,13.52
2023-01-21T00:53:29.398Z,13.73
2023-01-21T00:56:04.205Z,14.23
2023-01-21T00:58:31.528Z,13.05
2023-01-21T01:01:08.453Z,11.90
2023-01-21T01:03:36.048Z,13.15
2023-01-21T01:06:08.627Z,10.93
2023-01-21T01:08:35.581Z,11.45
2023-01-21T01:11:03.003Z,12.15
2023-01-21T01:13:30.119Z,10.65
2023-01-21T01:15:57.918Z,11.82
2023-01-21T01:18:26.581Z,9.52
2023-01-21T01:20:53.557Z,10.32
2023-01-21T01:23:20.407Z,7.60
2023-01-21T01:26:02.422Z,7.30
2023-01-21T01:28:30.235Z,8.45
2023-01-21T01:30:57.619Z,7.05
2023-01-21T01:33:25.118Z,7.20
2023-01-21T01:35:52.363Z,6.63
2023-01-21T01:38:22.314Z,7.13
2023-01-21T01:40:51.137Z,7.00
2023-01-21T01:43:27.051Z,6.30
2023-01-21T01:45:54.398Z,7.20
2023-01-21T01:48:30.587Z,6.47
2023-01-21T01:51:01.091Z,7.32
2023-01-21T01:53:29.663Z,6.60
2023-01-21T01:55:57.697Z,7.05
2023-01-21T01:58:24.934Z,7.10
2023-01-21T02:00:51.764Z,6.90
2023-01-21T02:03:37.290Z,6.97
2023-01-21T02:06:04.436Z,6.72
2023-01-21T02:08:34.382Z,5.05
2023-01-21T02:11:02.631Z,5.35
2023-01-21T02:13:31.606Z,4.88
2023-01-21T02:16:14.363Z,5.63
2023-01-21T02:18:44.238Z,6.18
2023-01-21T02:21:35.634Z,7.35
2023-01-21T02:24:41.158Z,5.70
2023-01-21T02:27:45.843Z,5.60
2023-01-21T02:30:40.123Z,4.93
2023-01-21T02:33:25.049Z,5.30
2023-01-21T02:36:22.464Z,5.70
2023-01-21T02:39:07.626Z,5.50
2023-01-21T02:42:13.334Z,5.72
2023-01-21T02:44:44.561Z,6.70
2023-01-21T02:47:38.414Z,6.47
2023-01-21T02:50:18.363Z,7.93
2023-01-21T02:52:45.299Z,8.07
2023-01-21T02:55:16.259Z,8.53
2023-01-21T02:57:50.523Z,8.85
2023-01-21T03:00:46.094Z,8.85
2023-01-21T03:03:43.267Z,9.27
2023-01-21T03:06:30.172Z,10.17
2023-01-21T03:09:27.328Z,9.10
2023-01-21T03:12:05.760Z,10.77
2023-01-21T03:15:09.582Z,11.40
2023-01-21T03:18:16.397Z,10.33
2023-01-21T03:20:55.006Z,9.33
2023-01-21T03:23:28.472Z,10.67
2023-01-21T03:25:57.191Z,8.87
2023-01-21T03:28:26.718Z,8.82
2023-01-21T03:31:07.256Z,10.15
2023-01-21T03:33:37.584Z,9.82
2023-01-21T03:38:39.691Z,8.20
2023-01-21T03:41:13.892Z,8.80
2023-01-21T03:43:40.768Z,8.63
2023-01-21T03:46:15.899Z,7.60
2023-01-21T03:48:48.745Z,8.33
2023-01-21T03:51:19.618Z,7.97
2023-01-21T03:53:52.723Z,7.50
2023-01-21T03:56:19.690Z,7.30
2023-01-21T03:58:46.513Z,7.43
2023-01-21T04:01:13.425Z,7.88
2023-01-21T04:03:40.953Z,8.52
2023-01-21T04:06:09.511Z,8.33
2023-01-21T04:08:36.338Z,7.67
2023-01-21T04:11:03.197Z,6.93
2023-01-21T04:13:29.970Z,7.13
2023-01-21T04:15:56.750Z,7.40
2023-01-21T04:18:23.650Z,8.37
2023-01-21T04:20:50.538Z,7.43
2023-01-21T04:23:17.375Z,8.17
2023-01-21T04:25:44.209Z,9.98
2023-01-21T04:28:11.042Z,9.53
2023-01-21T04:30:37.835Z,9.17
2023-01-21T04:33:04.676Z,8.70
2023-01-21T04:35:31.524Z,9.53
2023-01-21T04:37:58.337Z,8.47
2023-01-21T04:40:25.133Z,9.43
2023-01-21T04:42:51.955Z,9.10
2023-01-21T04:45:18.864Z,8.83
2023-01-21T04:47:45.756Z,9.03
2023-01-21T04:50:13.577Z,8.67
2023-01-21T04:52:41.306Z,10.17
2023-01-21T04:55:09.623Z,8.53
2023-01-21T04:57:37.200Z,8.27
2023-01-21T05:00:05.940Z,9.20
2023-01-21T05:02:33.446Z,8.10
2023-01-21T05:05:00.291Z,8.63
2023-01-21T05:07:27.457Z,10.43
2023-01-21T05:09:54.387Z,8.53
2023-01-21T05:12:21.260Z,8.50
2023-01-21T05:14:48.104Z,8.80
2023-01-21T05:17:14.877Z,9.43
2023-01-21T05:19:41.754Z,8.67
2023-01-21T05:22:08.557Z,7.57
2023-01-21T05:24:35.569Z,9.23
2023-01-21T05:27:02.418Z,8.57
2023-01-21T05:29:29.317Z,8.20
2023-01-21T05:31:56.129Z,7.85
2023-01-21T05:34:23.055Z,8.33
2023-01-21T05:36:49.866Z,8.20
2023-01-21T05:39:16.732Z,7.50
2023-01-21T05:41:44.147Z,8.47
2023-01-21T05:44:11.135Z,8.00
2023-01-21T05:46:37.978Z,7.83
2023-01-21T05:49:04.782Z,7.47
2023-01-21T05:51:31.629Z,7.77
2023-01-21T05:53:58.849Z,8.93
2023-01-21T05:56:25.669Z,8.57
2023-01-21T05:58:52.526Z,9.90
2023-01-21T06:01:19.429Z,10.18
2023-01-21T06:03:46.321Z,10.27
2023-01-21T06:06:13.135Z,9.52
2023-01-21T06:08:40.010Z,9.98
2023-01-21T06:11:06.900Z,12.70
2023-01-21T06:13:33.868Z,10.98
2023-01-21T06:16:00.846Z,11.27
2023-01-21T06:18:27.715Z,11.90
2023-01-21T06:20:54.659Z,13.40
2023-01-21T06:23:21.510Z,14.23
2023-01-21T06:25:48.329Z,12.50
2023-01-21T06:28:15.157Z,14.98
2023-01-21T06:30:41.969Z,12.60
2023-01-21T06:33:08.784Z,13.45
2023-01-21T06:35:37.015Z,15.82
2023-01-21T06:38:03.940Z,13.63
2023-01-21T06:40:30.684Z,14.25
2023-01-21T06:42:57.540Z,14.88
2023-01-21T06:45:24.489Z,13.48
2023-01-21T06:47:51.338Z,13.77
2023-01-21T06:50:19.163Z,12.88
2023-01-21T06:52:47.981Z,14.00
2023-01-21T06:55:16.365Z,13.75
2023-01-21T06:57:44.201Z,13.50
2023-01-21T07:00:12.615Z,15.95
2023-01-21T07:02:39.618Z,16.65
2023-01-21T07:05:06.874Z,15.63
2023-01-21T07:07:33.785Z,16.75
2023-01-21T07:10:00.674Z,14.80
2023-01-21T07:12:27.514Z,14.70
2023-01-21T07:14:54.434Z,14.88
2023-01-21T07:17:21.716Z,14.48
2023-01-21T07:19:48.568Z,15.27
2023-01-21T07:22:15.497Z,14.63
2023-01-21T07:24:42.323Z,17.80
2023-01-21T07:27:09.428Z,15.35
2023-01-21T07:29:36.186Z,16.30
2023-01-21T07:32:03.195Z,16.80
2023-01-21T07:34:30.069Z,16.58
2023-01-21T07:36:56.881Z,16.23
2023-01-21T07:39:23.686Z,18.58
2023-01-21T07:41:50.555Z,18.02
2023-01-21T07:44:18.341Z,17.40
2023-01-21T07:46:45.280Z,16.75
2023-01-21T07:49:17.127Z,17.52
2023-01-21T07:51:48.961Z,16.98
2023-01-21T07:54:16.321Z,17.08
2023-01-21T07:56:43.163Z,16.83
2023-01-21T07:59:11.544Z,18.10
2023-01-21T08:01:38.406Z,16.65
2023-01-21T08:04:07.098Z,17.30
2023-01-21T08:06:34.050Z,15.82
2023-01-21T08:09:00.880Z,18.33
2023-01-21T08:11:27.700Z,16.00
2023-01-21T08:13:54.559Z,17.58
2023-01-21T08:16:21.655Z,15.27
2023-01-21T08:18:48.570Z,18.75
2023-01-21T08:21:15.555Z,17.42
2023-01-21T08:23:42.393Z,18.20
2023-01-21T08:26:09.265Z,15.85
2023-01-21T08:28:36.222Z,18.70
2023-01-21T08:31:11.978Z,18.38
2023-01-21T08:33:39.038Z,20.73
2023-01-21T08:36:08.032Z,18.38
2023-01-21T08:38:35.273Z,18.13
2023-01-21T08:41:02.116Z,18.00
2023-01-21T08:43:29.156Z,17.00
2023-01-21T08:45:58.579Z,17.45
2023-01-21T08:48:25.585Z,17.63
2023-01-21T08:50:52.494Z,16.20
2023-01-21T08:53:19.648Z,15.23
2023-01-21T08:55:46.513Z,14.77
2023-01-21T08:58:13.385Z,15.68
2023-01-21T09:00:41.988Z,15.25
2023-01-21T09:03:08.868Z,14.73
2023-01-21T09:05:35.692Z,15.55
2023-01-21T09:08:02.535Z,13.98
2023-01-21T09:10:47.895Z,13.90
2023-01-21T09:13:16.376Z,15.40
2023-01-21T09:15:44.802Z,14.70
2023-01-21T09:18:12.092Z,16.80
2023-01-21T09:20:39.830Z,16.45
2023-01-21T09:23:26.743Z,16.73
2023-01-21T09:25:54.665Z,15.13
2023-01-21T09:28:22.965Z,16.13
2023-01-21T09:30:49.850Z,15.07
2023-01-21T09:33:16.790Z,15.73
2023-01-21T09:35:44.409Z,14.52
2023-01-21T09:38:12.848Z,14.93
2023-01-21T09:40:45.090Z,14.00
2023-01-21T09:43:21.588Z,15.77
2023-01-21T09:45:50.410Z,14.95
2023-01-21T09:48:28.508Z,16.75
2023-01-21T09:50:59.173Z,17.40
2023-01-21T09:53:50.366Z,16.42
2023-01-21T09:56:34.508Z,13.43
2023-01-21T09:59:15.379Z,14.73
2023-01-21T10:01:43.311Z,14.00
2023-01-21T10:04:36.508Z,15.07
2023-01-21T10:07:19.051Z,13.95
2023-01-21T10:10:19.705Z,14.10
2023-01-21T10:13:01.882Z,10.27
2023-01-21T10:15:44.161Z,11.93
2023-01-21T10:18:18.866Z,12.60
2023-01-21T10:20:56.008Z,10.65
2023-01-21T10:23:40.705Z,13.00
2023-01-21T10:26:11.222Z,12.57
2023-01-21T10:28:44.574Z,14.27
2023-01-21T10:31:28.969Z,12.07
2023-01-21T10:33:56.192Z,12.07
2023-01-21T10:36:28.481Z,11.43
2023-01-21T10:39:20.159Z,11.48
2023-01-21T10:42:05.692Z,12.95
2023-01-21T10:44:48.749Z,11.25
2023-01-21T10:47:48.978Z,11.23
2023-01-21T10:50:31.614Z,12.15
2023-01-21T10:53:38.523Z,11.15
2023-01-21T10:56:11.160Z,9.38
2023-01-21T10:58:55.425Z,9.23
2023-01-21T11:01:29.080Z,9.30
2023-01-21T11:04:00.459Z,11.02
2023-01-21T11:06:30.811Z,14.38
2023-01-21T11:09:02.953Z,16.42
2023-01-21T11:11:35.602Z,16.42
2023-01-21T11:14:02.694Z,15.43
2023-01-21T11:16:43.173Z,15.32
2023-01-21T11:21:40.118Z,10.82
2023-01-21T11:24:24.460Z,9.02
2023-01-21T11:26:57.099Z,10.55
2023-01-21T11:29:25.679Z,10.50
2023-01-21T11:32:16.706Z,10.05
2023-01-21T11:34:46.126Z,10.05
2023-01-21T11:37:26.092Z,8.85
2023-01-21T11:40:03.298Z,9.43
2023-01-21T11:42:30.220Z,9.32
2023-01-21T11:45:22.735Z,9.70
2023-01-21T11:47:51.626Z,8.88
2023-01-21T11:50:30.451Z,9.23
2023-01-21T11:53:19.792Z,8.60
2023-01-21T11:55:52.404Z,9.30
2023-01-21T11:58:29.970Z,8.23
2023-01-21T12:00:59.312Z,6.90
2023-01-21T12:03:41.087Z,7.68
2023-01-21T12:06:09.670Z,6.50
2023-01-21T12:08:40.063Z,7.25
2023-01-21T12:14:20.911Z,6.05
2023-01-21T12:16:59.614Z,6.70
2023-01-21T12:19:55.387Z,6.43
2023-01-21T12:22:30.891Z,6.38
2023-01-21T12:25:00.654Z,6.72
2023-01-21T12:27:54.793Z,6.13
2023-01-21T12:30:34.817Z,7.03
2023-01-21T12:33:10.386Z,7.28
2023-01-21T12:35:41.983Z,6.60
2023-01-21T12:38:18.581Z,6.45
2023-01-21T12:41:01.609Z,7.22
2023-01-21T12:43:35.740Z,6.70
2023-01-21T12:46:21.367Z,7.65
2023-01-21T12:48:51.775Z,6.47
2023-01-21T12:54:34.641Z,6.03
2023-01-21T12:57:20.123Z,6.85
2023-01-21T13:00:00.599Z,7.60
2023-01-21T13:05:22.066Z,7.00
2023-01-21T13:07:59.199Z,6.75
2023-01-21T13:10:44.001Z,5.97
2023-01-21T13:13:22.249Z,6.60
2023-01-21T13:15:54.147Z,7.13
2023-01-21T13:18:48.920Z,7.63
2023-01-21T13:21:36.133Z,6.60
2023-01-21T13:24:15.389Z,6.32
2023-01-21T13:26:56.869Z,7.50
2023-01-21T13:29:45.363Z,7.25
2023-01-21T13:32:28.996Z,6.60
2023-01-21T13:35:43.948Z,8.02
2023-01-21T13:38:10.670Z,6.82
2023-01-21T13:40:58.895Z,6.35
2023-01-21T13:44:01.193Z,7.05
2023-01-21T13:46:36.666Z,6.88
2023-01-21T13:49:33.857Z,6.63
2023-01-21T13:52:14.580Z,7.22
2023-01-21T13:55:01.629Z,7.22
2023-01-21T13:57:56.324Z,6.97
2023-01-21T14:00:27.679Z,7.32
2023-01-21T14:03:01.872Z,7.88
2023-01-21T14:05:59.731Z,8.15
2023-01-21T14:08:43.632Z,7.43
2023-01-21T14:11:29.454Z,8.13
2023-01-21T14:14:15.216Z,8.50
2023-01-21T14:17:17.374Z,6.45
2023-01-21T14:19:53.055Z,6.47
2023-01-21T14:22:28.697Z,7.45
2023-01-21T14:25:01.414Z,6.88
2023-01-21T14:28:00.641Z,6.45
2023-01-21T14:31:06.523Z,5.15
2023-01-21T14:33:58.370Z,5.80
2023-01-21T14:36:35.032Z,6.88
2023-01-21T14:39:15.229Z,8.40
2023-01-21T14:42:03.078Z,7.35
2023-01-21T14:44:43.176Z,8.80
2023-01-21T14:47:18.284Z,8.40
2023-01-21T14:49:48.021Z,10.52
2023-01-21T14:52:17.664Z,7.57
2023-01-21T14:54:46.247Z,8.50
2023-01-21T14:57:22.936Z,9.40
2023-01-21T14:59:50.670Z,7.95
2023-01-21T15:02:43.915Z,8.13
2023-01-21T15:05:10.803Z,8.07
2023-01-21T15:07:44.848Z,8.55
2023-01-21T15:10:20.698Z,8.13
2023-01-21T15:12:53.826Z,8.05
2023-01-21T15:15:48.917Z,6.40
2023-01-21T15:18:39.441Z,8.70
2023-01-21T15:23:52.107Z,6.68
2023-01-21T15:26:30.820Z,6.93
2023-01-21T15:29:32.869Z,7.75
2023-01-21T15:32:26.781Z,6.97
2023-01-21T15:35:14.212Z,7.95
2023-01-21T15:37:45.471Z,6.47
2023-01-21T15:40:19.989Z,7.68
2023-01-21T15:43:37.447Z,6.43
2023-01-21T15:46:25.286Z,7.90
2023-01-21T15:49:02.486Z,7.55
2023-01-21T15:51:40.875Z,8.20
2023-01-21T15:54:29.942Z,10.38
2023-01-21T15:57:07.803Z,11.60
2023-01-21T15:59:53.551Z,8.40
2023-01-21T16:02:33.049Z,7.95
2023-01-21T16:05:15.307Z,8.83
2023-01-21T16:08:08.023Z,9.55
2023-01-21T16:10:40.549Z,7.68
2023-01-21T16:13:42.482Z,8.07
2023-01-21T16:16:24.576Z,8.18
2023-01-21T16:19:08.555Z,8.20
2023-01-21T16:21:37.427Z,8.68
2023-01-21T16:24:26.755Z,8.18
2023-01-21T16:26:53.825Z,6.70
2023-01-21T16:29:20.650Z,7.82
2023-01-21T16:31:59.281Z,7.50
2023-01-21T16:34:42.280Z,7.78
2023-01-21T16:37:14.711Z,8.13
2023-01-21T16:39:42.826Z,7.70
2023-01-21T16:42:42.936Z,8.98
2023-01-21T16:45:22.200Z,6.47
2023-01-21T16:47:59.747Z,7.47
2023-01-21T16:50:28.626Z,7.18
2023-01-21T16:52:58.230Z,7.20
2023-01-21T16:55:27.478Z,6.70
2023-01-21T16:57:56.746Z,7.53
2023-01-21T17:00:31.790Z,7.78
2023-01-21T17:03:00.404Z,5.90
2023-01-21T17:05:31.555Z,5.88
2023-01-21T17:08:01.936Z,6.50
2023-01-21T17:10:39.463Z,6.97
2023-01-21T17:13:14.071Z,5.90
2023-01-21T17:15:44.364Z,6.32
2023-01-21T17:18:23.043Z,7.15
2023-01-21T17:20:54.504Z,5.57
2023-01-21T17:23:25.817Z,7.15
2023-01-21T17:25:57.405Z,6.03
2023-01-21T17:28:32.658Z,6.03
2023-01-21T17:31:11.716Z,6.35
2023-01-21T17:33:38.738Z,6.20
2023-01-21T17:36:08.435Z,6.53
2023-01-21T17:38:40.238Z,7.38
2023-01-21T17:41:09.211Z,5.68
2023-01-21T17:43:39.061Z,6.13
2023-01-21T17:46:06.635Z,5.28
2023-01-21T17:48:38.104Z,5.47
2023-01-21T17:51:15.163Z,6.00
2023-01-21T17:53:49.387Z,5.90
2023-01-21T17:56:33.279Z,5.28
2023-01-21T17:59:03.552Z,6.38
2023-01-21T18:01:31.262Z,5.93
2023-01-21T18:03:58.143Z,6.13
2023-01-21T18:06:28.360Z,5.57
2023-01-21T18:08:58.290Z,6.28
2023-01-21T18:11:25.293Z,5.78
2023-01-21T18:13:52.685Z,6.60
2023-01-21T18:16:19.946Z,5.45
2023-01-21T18:18:46.892Z,5.22
2023-01-21T18:21:19.602Z,5.72
2023-01-21T18:23:47.755Z,6.07
2023-01-21T18:26:27.700Z,6.18
2023-01-21T18:28:54.802Z,5.97
2023-01-21T18:31:22.709Z,6.43
2023-01-21T18:33:49.663Z,6.43
2023-01-21T18:36:16.507Z,8.25
2023-01-21T18:38:43.936Z,7.50
2023-01-21T18:41:12.030Z,7.28
2023-01-21T18:43:38.907Z,7.75
2023-01-21T18:46:13.985Z,11.20
2023-01-21T18:48:42.782Z,11.63
2023-01-21T18:51:10.284Z,11.50
2023-01-21T18:53:37.216Z,10.60
2023-01-21T18:56:06.353Z,8.60
2023-01-21T18:58:33.270Z,7.80
2023-01-21T19:01:01.494Z,7.35
2023-01-21T19:03:32.618Z,6.32
2023-01-21T19:05:59.381Z,6.03
2023-01-21T19:08:28.613Z,5.93
2023-01-21T19:10:55.864Z,5.38
2023-01-21T19:13:22.890Z,5.20
2023-01-21T19:15:50.072Z,5.47
2023-01-21T19:18:17.454Z,5.57
2023-01-21T19:20:44.862Z,7.25
2023-01-21T19:23:17.784Z,10.25
2023-01-21T19:25:51.638Z,9.50
2023-01-21T19:28:19.266Z,11.02
2023-01-21T19:30:46.528Z,7.82
2023-01-21T19:33:13.408Z,6.32
2023-01-21T19:35:44.639Z,8.27
2023-01-21T19:38:17.819Z,7.13
2023-01-21T19:40:46.752Z,6.55
2023-01-21T19:43:15.145Z,5.28
2023-01-21T19:45:43.052Z,7.43
2023-01-21T19:48:15.235Z,6.32
2023-01-21T19:50:42.624Z,6.68
2023-01-21T19:53:18.492Z,5.57
2023-01-21T19:55:46.630Z,4.35
2023-01-21T19:58:19.595Z,4.55
2023-01-21T20:00:51.197Z,8.20
2023-01-21T20:03:19.986Z,10.40
2023-01-21T20:05:49.629Z,8.38
2023-01-21T20:08:21.311Z,6.35
2023-01-21T20:10:48.430Z,8.90
2023-01-21T20:13:16.533Z,10.05
2023-01-21T20:15:45.076Z,9.30
2023-01-21T20:18:23.116Z,9.80
2023-01-21T20:20:50.200Z,8.75
2023-01-21T20:23:17.973Z,9.50
2023-01-21T20:25:48.183Z,10.27
2023-01-21T20:28:39.897Z,9.40
2023-01-21T20:31:08.257Z,8.23
2023-01-21T20:33:36.153Z,9.32
2023-01-21T20:36:06.153Z,9.27
2023-01-21T20:38:37.625Z,8.50
2023-01-21T20:41:05.248Z,8.63
2023-01-21T20:43:32.073Z,8.38
2023-01-21T20:46:02.972Z,8.88
2023-01-21T20:48:35.454Z,8.13
2023-01-21T20:51:03.373Z,8.93
2023-01-21T20:53:30.859Z,9.00
2023-01-21T20:56:00.583Z,10.15
2023-01-21T20:58:28.138Z,8.93
2023-01-21T21:00:55.112Z,8.57
2023-01-21T21:03:22.005Z,8.48
2023-01-21T21:05:49.401Z,6.28
2023-01-21T21:08:18.668Z,7.50
2023-01-21T21:10:46.256Z,7.07
2023-01-21T21:13:13.937Z,6.55
2023-01-21T21:15:41.864Z,6.40
2023-01-21T21:18:12.931Z,5.57
2023-01-21T21:20:40.794Z,6.65
2023-01-21T21:23:09.652Z,7.47
2023-01-21T21:25:41.493Z,7.00
2023-01-21T21:28:11.131Z,7.18
2023-01-21T21:30:38.132Z,4.82
2023-01-21T21:33:05.475Z,4.47
2023-01-21T21:35:35.701Z,4.20
2023-01-21T21:38:12.721Z,5.10
2023-01-21T21:40:39.860Z,4.88
2023-01-21T21:43:25.283Z,4.90
2023-01-21T21:46:10.722Z,4.68
2023-01-21T21:48:42.436Z,5.05
2023-01-21T21:51:15.339Z,3.92
2023-01-21T21:53:42.202Z,4.20
2023-01-21T21:56:19.837Z,4.68
2023-01-21T21:58:47.827Z,3.40
2023-01-21T22:01:16.261Z,3.17
2023-01-21T22:03:43.753Z,3.25
2023-01-21T22:06:11.912Z,3.08
2023-01-21T22:08:40.628Z,2.83
2023-01-21T22:11:10.103Z,3.70
2023-01-21T22:13:40.236Z,2.93
2023-01-21T22:16:10.616Z,3.28
2023-01-21T22:21:07.266Z,3.35
2023-01-21T22:23:36.009Z,3.92
2023-01-21T22:26:04.908Z,4.22
2023-01-21T22:28:32.471Z,4.05
2023-01-21T22:31:04.478Z,5.43
2023-01-21T22:33:33.554Z,5.03
2023-01-21T22:36:05.226Z,5.00
2023-01-21T22:38:33.740Z,4.22
2023-01-21T22:41:01.235Z,4.90
2023-01-21T22:43:29.332Z,5.75
2023-01-21T22:45:57.196Z,4.70
2023-01-21T22:48:25.030Z,2.92
2023-01-21T22:50:54.097Z,4.97
2023-01-21T22:53:21.685Z,5.65
2023-01-21T22:55:59.596Z,6.10
2023-01-21T22:58:27.992Z,7.00
2023-01-21T23:00:55.957Z,8.15
2023-01-21T23:03:23.785Z,8.35
2023-01-21T23:05:51.187Z,7.75
2023-01-21T23:08:18.691Z,7.90
2023-01-21T23:10:46.807Z,6.93
2023-01-21T23:13:14.820Z,6.68
2023-01-21T23:15:46.871Z,7.00
2023-01-21T23:18:14.777Z,6.63
2023-01-21T23:20:43.220Z,6.93
2023-01-21T23:23:12.028Z,7.18
2023-01-21T23:25:43.003Z,7.65
2023-01-21T23:28:11.021Z,6.78
2023-01-21T23:30:37.887Z,6.63
2023-01-21T23:33:04.838Z,5.72
2023-01-21T23:35:34.078Z,5.28
2023-01-21T23:38:03.188Z,5.90
2023-01-21T23:40:30.424Z,5.30
2023-01-21T23:42:57.825Z,4.10
2023-01-21T23:45:24.661Z,3.55
2023-01-21T23:47:51.573Z,4.43
2023-01-21T23:50:18.763Z,4.18
2023-01-21T23:52:45.883Z,4.47
2023-01-21T23:55:14.695Z,6.35
2023-01-21T23:57:41.684Z,6.30
